createdAt,value
2023-01-07T00:01:03.954Z,3.90
2023-01-07T00:06:22.773Z,3.80
2023-01-07T00:11:35.555Z,3.90
2023-01-07T00:16:40.045Z,3.80
2023-01-07T00:21:44.105Z,3.70
2023-01-07T00:26:47.795Z,3.60
2023-01-07T00:31:51.588Z,3.60
2023-01-07T00:37:14.945Z,3.70
2023-01-07T00:42:37.196Z,3.80
2023-01-07T00:47:41.027Z,3.80
2023-01-07T00:52:44.500Z,3.80
2023-01-07T00:57:48.294Z,3.80
2023-01-07T01:02:53.207Z,3.90
2023-01-07T01:07:58.672Z,4.00
2023-01-07T01:13:02.803Z,4.00
2023-01-07T01:18:06.515Z,4.00
2023-01-07T01:23:10.636Z,3.90
2023-01-07T01:28:14.395Z,3.70
2023-01-07T01:33:18.242Z,3.60
2023-01-07T01:38:22.055Z,3.40
2023-01-07T01:43:45.381Z,3.30
2023-01-07T01:48:55.297Z,3.30
2023-01-07T01:53:58.789Z,3.40
2023-01-07T01:59:13.381Z,3.30
2023-01-07T02:04:21.808Z,3.30
2023-01-07T02:09:25.403Z,3.10
2023-01-07T02:14:52.193Z,2.90
2023-01-07T02:20:14.626Z,2.60
2023-01-07T02:25:21.173Z,2.40
2023-01-07T02:30:56.123Z,2.40
2023-01-07T02:36:13.234Z,2.40
2023-01-07T02:41:38.734Z,2.30
2023-01-07T02:46:52.796Z,2.20
2023-01-07T02:51:56.410Z,2.40
2023-01-07T02:57:00.298Z,2.80
2023-01-07T03:02:06.997Z,3.10
2023-01-07T03:07:29.393Z,3.40
2023-01-07T03:12:35.665Z,3.60
2023-01-07T03:17:45.119Z,3.60
2023-01-07T03:22:49.684Z,3.60
2023-01-07T03:27:55.227Z,3.70
2023-01-07T03:33:08.518Z,3.70
2023-01-07T03:38:14.030Z,3.80
2023-01-07T03:43:20.913Z,3.80
2023-01-07T03:48:24.744Z,3.80
2023-01-07T03:53:28.494Z,3.80
2023-01-07T03:58:32.126Z,3.80
2023-01-07T04:03:35.842Z,3.80
2023-01-07T04:08:39.645Z,3.80
2023-01-07T04:13:43.434Z,3.80
2023-01-07T04:18:47.214Z,3.80
2023-01-07T04:23:51.090Z,3.70
2023-01-07T04:28:54.934Z,3.70
2023-01-07T04:33:58.799Z,3.70
2023-01-07T04:39:03.033Z,3.60
2023-01-07T04:44:06.935Z,3.70
2023-01-07T04:49:10.794Z,3.70
2023-01-07T04:54:14.516Z,3.70
2023-01-07T04:59:18.346Z,3.70
2023-01-07T05:09:58.251Z,3.70
2023-01-07T05:15:06.004Z,3.60
2023-01-07T05:20:10.164Z,3.70
2023-01-07T05:25:13.932Z,3.70
2023-01-07T05:30:17.974Z,3.80
2023-01-07T05:35:21.895Z,3.80
2023-01-07T05:40:25.705Z,3.90
2023-01-07T05:45:29.442Z,3.90
2023-01-07T05:50:33.539Z,4.00
2023-01-07T05:55:39.095Z,4.00
2023-01-07T06:00:43.331Z,4.10
2023-01-07T06:05:47.071Z,4.20
2023-01-07T06:10:50.710Z,4.20
2023-01-07T06:15:54.364Z,4.30
2023-01-07T06:20:58.626Z,4.30
2023-01-07T06:26:02.573Z,4.30
2023-01-07T06:31:06.509Z,4.40
2023-01-07T06:36:10.626Z,4.50
2023-01-07T06:41:14.779Z,4.50
2023-01-07T06:46:18.585Z,4.50
2023-01-07T06:51:22.351Z,4.60
2023-01-07T06:56:26.248Z,4.60
2023-01-07T07:01:30.195Z,4.60
2023-01-07T07:06:34.240Z,4.60
2023-01-07T07:11:38.370Z,4.60
2023-01-07T07:16:42.235Z,4.60
2023-01-07T07:21:47.286Z,4.70
2023-01-07T07:26:51.610Z,4.70
2023-01-07T07:31:55.006Z,4.80
2023-01-07T07:36:59.047Z,4.70
2023-01-07T07:42:07.078Z,4.80
2023-01-07T07:47:13.700Z,4.90
2023-01-07T07:52:18.191Z,5.00
2023-01-07T07:57:22.012Z,5.00
2023-01-07T08:02:25.491Z,5.10
2023-01-07T08:07:32.928Z,5.10
2023-01-07T08:12:39.456Z,5.10
2023-01-07T08:17:44.111Z,5.20
2023-01-07T08:22:48.096Z,5.20
2023-01-07T08:27:51.850Z,5.30
2023-01-07T08:32:56.431Z,5.30
2023-01-07T08:38:09.115Z,5.30
2023-01-07T08:43:15.696Z,5.30
2023-01-07T08:48:20.159Z,5.30
2023-01-07T08:53:24.780Z,5.30
2023-01-07T08:58:28.489Z,5.40
2023-01-07T09:03:32.369Z,5.40
2023-01-07T09:08:36.605Z,5.40
2023-01-07T09:13:40.540Z,5.40
2023-01-07T09:18:44.320Z,5.30
2023-01-07T09:23:47.952Z,5.30
2023-01-07T09:28:51.875Z,5.30
2023-01-07T09:33:55.345Z,5.30
2023-01-07T09:38:59.169Z,5.30
2023-01-07T09:44:40.416Z,5.30
2023-01-07T09:49:48.490Z,5.30
2023-01-07T09:54:59.731Z,5.30
2023-01-07T10:00:04.240Z,5.40
2023-01-07T10:05:41.230Z,5.50
2023-01-07T10:11:05.495Z,5.50
2023-01-07T10:16:24.419Z,5.60
2023-01-07T10:21:42.293Z,5.50
2023-01-07T10:26:50.629Z,5.60
2023-01-07T10:31:57.458Z,5.40
2023-01-07T10:37:08.298Z,5.50
2023-01-07T10:42:14.932Z,5.50
2023-01-07T10:47:31.816Z,5.40
2023-01-07T10:53:15.072Z,5.40
2023-01-07T10:58:18.974Z,5.40
2023-01-07T11:03:25.196Z,5.40
2023-01-07T11:08:37.591Z,5.30
2023-01-07T11:13:48.195Z,5.30
2023-01-07T11:19:06.993Z,5.30
2023-01-07T11:24:35.592Z,5.40
2023-01-07T11:30:17.340Z,5.30
2023-01-07T11:35:24.227Z,5.40
2023-01-07T11:40:31.955Z,5.30
2023-01-07T11:46:19.438Z,5.30
2023-01-07T11:51:24.744Z,5.30
2023-01-07T11:56:31.750Z,5.40
2023-01-07T12:01:47.190Z,5.40
2023-01-07T12:06:57.209Z,5.40
2023-01-07T12:12:40.581Z,5.40
2023-01-07T12:17:50.502Z,5.30
2023-01-07T12:23:22.322Z,5.40
2023-01-07T12:28:53.932Z,5.40
2023-01-07T12:34:03.632Z,5.40
2023-01-07T12:39:28.194Z,5.40
2023-01-07T12:44:33.176Z,5.40
2023-01-07T12:49:48.489Z,5.40
2023-01-07T12:54:58.558Z,5.40
2023-01-07T13:00:29.829Z,5.50
2023-01-07T13:06:12.919Z,5.50
2023-01-07T13:11:43.671Z,5.50
2023-01-07T13:16:49.131Z,5.50
2023-01-07T13:21:54.389Z,5.60
2023-01-07T13:26:59.013Z,5.60
2023-01-07T13:32:35.619Z,5.60
2023-01-07T13:37:51.594Z,5.60
2023-01-07T13:43:26.559Z,5.60
2023-01-07T13:48:31.705Z,5.70
2023-01-07T13:53:46.792Z,5.70
2023-01-07T13:58:59.066Z,5.70
2023-01-07T14:04:07.777Z,5.90
2023-01-07T14:09:27.335Z,5.70
2023-01-07T14:14:52.731Z,5.80
2023-01-07T14:20:18.318Z,5.70
2023-01-07T14:25:42.321Z,5.70
2023-01-07T14:30:53.526Z,5.80
2023-01-07T14:36:11.093Z,5.80
2023-01-07T14:41:17.616Z,5.80
2023-01-07T14:46:25.477Z,5.90
2023-01-07T14:51:36.340Z,5.90
2023-01-07T14:56:53.646Z,5.90
2023-01-07T15:02:45.803Z,5.90
2023-01-07T15:08:20.070Z,5.90
2023-01-07T15:13:43.257Z,5.90
2023-01-07T15:18:55.836Z,5.90
2023-01-07T15:24:24.932Z,6.00
2023-01-07T15:29:33.871Z,6.00
2023-01-07T15:34:43.931Z,6.00
2023-01-07T15:39:58.193Z,6.10
2023-01-07T15:45:03.323Z,6.10
2023-01-07T15:50:32.970Z,6.10
2023-01-07T15:55:44.650Z,6.10
2023-01-07T16:00:53.956Z,6.10
2023-01-07T16:05:59.842Z,6.10
2023-01-07T16:11:09.677Z,6.00
2023-01-07T16:16:17.274Z,6.10
2023-01-07T16:21:21.080Z,6.00
2023-01-07T16:26:44.690Z,6.00
2023-01-07T16:31:48.841Z,6.00
2023-01-07T16:36:56.737Z,6.10
2023-01-07T16:42:19.577Z,6.10
2023-01-07T16:47:26.897Z,6.10
2023-01-07T16:52:34.707Z,6.10
2023-01-07T16:57:45.142Z,6.20
2023-01-07T17:03:00.563Z,6.30
2023-01-07T17:08:08.800Z,6.20
2023-01-07T17:13:15.628Z,6.30
2023-01-07T17:18:19.780Z,6.30
2023-01-07T17:23:27.747Z,6.30
2023-01-07T17:28:34.798Z,6.40
2023-01-07T17:33:38.757Z,6.40
2023-01-07T17:38:42.683Z,6.40
2023-01-07T17:43:46.570Z,6.50
2023-01-07T17:48:50.591Z,6.50
2023-01-07T17:53:57.996Z,6.50
2023-01-07T17:59:01.488Z,6.50
2023-01-07T18:04:05.541Z,6.50
2023-01-07T18:09:11.496Z,6.50
2023-01-07T18:14:16.456Z,6.50
2023-01-07T18:19:21.753Z,6.60
2023-01-07T18:24:37.458Z,6.60
2023-01-07T18:29:41.626Z,6.60
2023-01-07T18:34:45.754Z,6.60
2023-01-07T18:39:49.897Z,6.60
2023-01-07T18:44:53.606Z,6.60
2023-01-07T18:49:57.679Z,6.60
2023-01-07T18:55:02.082Z,6.60
2023-01-07T19:00:07.895Z,6.60
2023-01-07T19:05:12.186Z,6.70
2023-01-07T19:10:16.134Z,6.60
2023-01-07T19:15:20.284Z,6.60
2023-01-07T19:20:24.655Z,6.70
2023-01-07T19:25:31.247Z,6.70
2023-01-07T19:30:35.276Z,6.70
2023-01-07T19:35:39.342Z,6.70
2023-01-07T19:40:47.064Z,6.70
2023-01-07T19:45:56.004Z,6.70
2023-01-07T19:51:05.962Z,6.60
2023-01-07T19:56:16.907Z,6.60
2023-01-07T20:01:25.288Z,6.60
2023-01-07T20:06:32.759Z,6.70
2023-01-07T20:11:39.428Z,6.70
2023-01-07T20:16:45.999Z,6.70
2023-01-07T20:21:51.632Z,6.70
2023-01-07T20:26:58.445Z,6.70
2023-01-07T20:32:02.609Z,6.80
2023-01-07T20:37:06.666Z,6.80
2023-01-07T20:42:11.998Z,6.70
2023-01-07T20:47:17.193Z,6.70
2023-01-07T20:52:22.743Z,6.80
2023-01-07T20:57:29.716Z,6.70
2023-01-07T21:02:33.941Z,6.70
2023-01-07T21:07:38.515Z,6.70
2023-01-07T21:12:44.272Z,6.70
2023-01-07T21:17:48.256Z,6.70
2023-01-07T21:22:54.362Z,6.60
2023-01-07T21:27:59.081Z,6.60
2023-01-07T21:33:03.298Z,6.50
2023-01-07T21:38:10.566Z,6.40
2023-01-07T21:43:14.752Z,6.30
2023-01-07T21:48:20.830Z,6.40
2023-01-07T21:53:26.064Z,6.30
2023-01-07T21:58:29.809Z,6.30
2023-01-07T22:03:36.417Z,6.30
2023-01-07T22:08:40.561Z,6.30
2023-01-07T22:13:45.662Z,6.30
2023-01-07T22:18:51.317Z,6.30
2023-01-07T22:23:55.038Z,6.40
2023-01-07T22:29:03.615Z,6.30
2023-01-07T22:34:09.950Z,6.30
2023-01-07T22:39:26.976Z,6.20
2023-01-07T22:44:38.340Z,6.10
2023-01-07T22:49:44.195Z,6.20
2023-01-07T22:54:49.103Z,6.10
2023-01-07T22:59:55.159Z,6.10
2023-01-07T23:04:59.986Z,6.00
2023-01-07T23:10:04.088Z,6.10
2023-01-07T23:15:08.273Z,6.00
2023-01-07T23:20:12.643Z,5.90
2023-01-07T23:25:16.507Z,5.80
2023-01-07T23:30:21.534Z,5.80
2023-01-07T23:35:26.231Z,5.70
2023-01-07T23:40:30.451Z,5.50
2023-01-07T23:45:34.580Z,5.50
2023-01-07T23:50:38.565Z,5.40
2023-01-07T23:55:50.456Z,5.30
